Station History

Weather Underground - logo

Station Historical Data
Daily Summary for February 16, 2018 Units:  Both    English   Metric
« Previous Day
Next Day »
Daily Weekly Monthly Yearly Custom
  High: Low: Average:
Temperature: 66.8 °F /  19.3 °C 35.2 °F /  1.8 °C 50 °F /  10 °C
Dew Point: 43.7 °F /  6.5 °C 31.9 °F /  -0.1 °C 37.1 °F /  2.8 °C
Humidity: 91 % 32 % 65 %
Wind Speed: 5.8 mph /  9.3 km/h - 0.6 mph /  1 km/h
Wind Gust: 5.8 mph /  9.3 km/h - -
Wind:- - WSW
Pressure: 30.33 in /  1027 hPa 30.14 in /  1020.5 hPa -
Precipitation: 0.00 in /  0 mm    
Historical Graphs
 
 
Tabular Data for February 16, 2018
Time Temperature Dew Point Pressure Wind Wind Speed Wind Gust Humidity Rainfall Rate (Hourly)
00:01 41.2 °F /  5.1 °C 36.7 °F /  2.6 °C 30.32 in /  1026.6 hPa Calm     84 % 0.00 in /  0 mm
00:06 41.2 °F /  5.1 °C 36.4 °F /  2.4 °C 30.32 in /  1026.6 hPa Calm     83 % 0.00 in /  0 mm
00:11 41.4 °F /  5.2 °C 36.6 °F /  2.6 °C 30.32 in /  1026.6 hPa Calm     83 % 0.00 in /  0 mm
00:16 41.5 °F /  5.3 °C 36.7 °F /  2.6 °C 30.32 in /  1026.6 hPa Calm     83 % 0.00 in /  0 mm
00:21 41.6 °F /  5.3 °C 36.5 °F /  2.5 °C 30.32 in /  1026.6 hPa Calm     82 % 0.00 in /  0 mm
00:26 41.4 °F /  5.2 °C 36.3 °F /  2.4 °C 30.32 in /  1026.6 hPa Calm     82 % 0.00 in /  0 mm
00:31 41.2 °F /  5.1 °C 36.4 °F /  2.4 °C 30.32 in /  1026.6 hPa Calm     83 % 0.00 in /  0 mm
00:36 41.3 °F /  5.2 °C 36.5 °F /  2.5 °C 30.32 in /  1026.6 hPa Calm     83 % 0.00 in /  0 mm
00:41 41.7 °F /  5.4 °C 36.9 °F /  2.7 °C 30.31 in /  1026.3 hPa Calm     83 % 0.00 in /  0 mm
00:46 41.5 °F /  5.3 °C 36.1 °F /  2.3 °C 30.32 in /  1026.6 hPa Calm     81 % 0.00 in /  0 mm
00:51 41.3 °F /  5.2 °C 36.2 °F /  2.3 °C 30.31 in /  1026.3 hPa Calm     82 % 0.00 in /  0 mm
00:56 41.3 °F /  5.2 °C 36.5 °F /  2.5 °C 30.31 in /  1026.3 hPa Calm     83 % 0.00 in /  0 mm
01:01 40.8 °F /  4.9 °C 35.7 °F /  2.1 °C 30.31 in /  1026.3 hPa Calm     82 % 0.00 in /  0 mm
01:06 40.8 °F /  4.9 °C 36.0 °F /  2.2 °C 30.30 in /  1026 hPa Calm     83 % 0.00 in /  0 mm
01:11 41.1 °F /  5.1 °C 36.0 °F /  2.2 °C 30.30 in /  1026 hPa Calm     82 % 0.00 in /  0 mm
01:16 41.3 °F /  5.2 °C 36.2 °F /  2.3 °C 30.30 in /  1026 hPa Calm     82 % 0.00 in /  0 mm
01:21 41.2 °F /  5.1 °C 36.1 °F /  2.3 °C 30.30 in /  1026 hPa Calm     82 % 0.00 in /  0 mm
01:26 41.2 °F /  5.1 °C 36.1 °F /  2.3 °C 30.30 in /  1026 hPa Calm     82 % 0.00 in /  0 mm
01:31 40.8 °F /  4.9 °C 35.7 °F /  2.1 °C 30.30 in /  1026 hPa Calm     82 % 0.00 in /  0 mm
01:36 40.5 °F /  4.7 °C 35.7 °F /  2.1 °C 30.30 in /  1026 hPa Calm     83 % 0.00 in /  0 mm
01:41 40.5 °F /  4.7 °C 36.0 °F /  2.2 °C 30.29 in /  1025.6 hPa Calm     84 % 0.00 in /  0 mm
01:46 40.5 °F /  4.7 °C 35.7 °F /  2.1 °C 30.29 in /  1025.6 hPa Calm     83 % 0.00 in /  0 mm
01:51 40.4 °F /  4.7 °C 35.3 °F /  1.8 °C 30.29 in /  1025.6 hPa Calm     82 % 0.00 in /  0 mm
01:56 40.0 °F /  4.4 °C 35.6 °F /  2 °C 30.29 in /  1025.6 hPa Calm     84 % 0.00 in /  0 mm
02:01 39.7 °F /  4.3 °C 35.3 °F /  1.8 °C 30.28 in /  1025.3 hPa Calm     84 % 0.00 in /  0 mm
02:06 39.5 °F /  4.2 °C 35.1 °F /  1.7 °C 30.28 in /  1025.3 hPa South 4.6 mph /  7.4 km/h   84 % 0.00 in /  0 mm
02:11 39.3 °F /  4.1 °C 35.2 °F /  1.8 °C 30.28 in /  1025.3 hPa Calm     85 % 0.00 in /  0 mm
02:16 39.1 °F /  3.9 °C 35.0 °F /  1.7 °C 30.28 in /  1025.3 hPa Calm     85 % 0.00 in /  0 mm
02:21 38.6 °F /  3.7 °C 33.9 °F /  1.1 °C 30.28 in /  1025.3 hPa Calm     83 % 0.00 in /  0 mm
02:26 38.1 °F /  3.4 °C 33.7 °F /  0.9 °C 30.28 in /  1025.3 hPa Calm     84 % 0.00 in /  0 mm
02:31 37.8 °F /  3.2 °C 33.7 °F /  0.9 °C 30.28 in /  1025.3 hPa Calm     85 % 0.00 in /  0 mm
02:37 37.5 °F /  3.1 °C 33.4 °F /  0.8 °C 30.28 in /  1025.3 hPa Calm     85 % 0.00 in /  0 mm
02:42 37.1 °F /  2.8 °C 33.0 °F /  0.6 °C 30.28 in /  1025.3 hPa Calm     85 % 0.00 in /  0 mm
02:47 37.0 °F /  2.8 °C 33.2 °F /  0.7 °C 30.28 in /  1025.3 hPa Calm     86 % 0.00 in /  0 mm
02:52 36.9 °F /  2.7 °C 33.4 °F /  0.8 °C 30.28 in /  1025.3 hPa Calm     87 % 0.00 in /  0 mm
02:57 37.2 °F /  2.9 °C 34.0 °F /  1.1 °C 30.28 in /  1025.3 hPa Calm     88 % 0.00 in /  0 mm
03:02 37.4 °F /  3 °C 34.2 °F /  1.2 °C 30.28 in /  1025.3 hPa Calm     88 % 0.00 in /  0 mm
03:07 37.6 °F /  3.1 °C 34.1 °F /  1.2 °C 30.28 in /  1025.3 hPa Calm     87 % 0.00 in /  0 mm
03:12 37.9 °F /  3.3 °C 34.4 °F /  1.3 °C 30.28 in /  1025.3 hPa Calm     87 % 0.00 in /  0 mm
03:17 38.2 °F /  3.4 °C 34.4 °F /  1.3 °C 30.28 in /  1025.3 hPa Calm     86 % 0.00 in /  0 mm
03:22 38.3 °F /  3.5 °C 34.5 °F /  1.4 °C 30.28 in /  1025.3 hPa Calm     86 % 0.00 in /  0 mm
03:27 38.1 °F /  3.4 °C 34.0 °F /  1.1 °C 30.28 in /  1025.3 hPa Calm     85 % 0.00 in /  0 mm
03:32 38.0 °F /  3.3 °C 34.2 °F /  1.2 °C 30.28 in /  1025.3 hPa Calm     86 % 0.00 in /  0 mm
03:37 37.8 °F /  3.2 °C 34.0 °F /  1.1 °C 30.28 in /  1025.3 hPa Calm     86 % 0.00 in /  0 mm
03:42 37.9 °F /  3.3 °C 34.4 °F /  1.3 °C 30.28 in /  1025.3 hPa Calm     87 % 0.00 in /  0 mm
03:47 37.8 °F /  3.2 °C 34.3 °F /  1.3 °C 30.28 in /  1025.3 hPa Calm     87 % 0.00 in /  0 mm
03:52 38.0 °F /  3.3 °C 34.2 °F /  1.2 °C 30.28 in /  1025.3 hPa Calm     86 % 0.00 in /  0 mm
03:57 37.8 °F /  3.2 °C 34.0 °F /  1.1 °C 30.27 in /  1024.9 hPa Calm     86 % 0.00 in /  0 mm
04:02 37.6 °F /  3.1 °C 33.8 °F /  1 °C 30.27 in /  1024.9 hPa Calm     86 % 0.00 in /  0 mm
04:07 37.3 °F /  2.9 °C 33.5 °F /  0.8 °C 30.27 in /  1024.9 hPa Calm     86 % 0.00 in /  0 mm
04:12 37.1 °F /  2.8 °C 33.3 °F /  0.7 °C 30.27 in /  1024.9 hPa Calm     86 % 0.00 in /  0 mm
04:17 36.9 °F /  2.7 °C 33.4 °F /  0.8 °C 30.27 in /  1024.9 hPa Calm     87 % 0.00 in /  0 mm
04:22 37.0 °F /  2.8 °C 33.8 °F /  1 °C 30.27 in /  1024.9 hPa Calm     88 % 0.00 in /  0 mm
04:27 37.2 °F /  2.9 °C 34.0 °F /  1.1 °C 30.27 in /  1024.9 hPa Calm     88 % 0.00 in /  0 mm
04:32 37.3 °F /  2.9 °C 33.8 °F /  1 °C 30.27 in /  1024.9 hPa Calm     87 % 0.00 in /  0 mm
04:37 37.5 °F /  3.1 °C 34.0 °F /  1.1 °C 30.27 in /  1024.9 hPa Calm     87 % 0.00 in /  0 mm
04:42 37.6 °F /  3.1 °C 34.4 °F /  1.3 °C 30.27 in /  1024.9 hPa Calm     88 % 0.00 in /  0 mm
04:47 37.7 °F /  3.2 °C 34.5 °F /  1.4 °C 30.27 in /  1024.9 hPa Calm     88 % 0.00 in /  0 mm
04:52 37.7 °F /  3.2 °C 34.5 °F /  1.4 °C 30.27 in /  1024.9 hPa Calm     88 % 0.00 in /  0 mm
04:57 37.6 °F /  3.1 °C 34.4 °F /  1.3 °C 30.27 in /  1024.9 hPa Calm     88 % 0.00 in /  0 mm
05:02 37.4 °F /  3 °C 34.2 °F /  1.2 °C 30.27 in /  1024.9 hPa Calm   0.2 mph /  0.3 km/h 88 % 0.00 in /  0 mm
05:07 36.5 °F /  2.5 °C 32.4 °F /  0.2 °C 30.27 in /  1024.9 hPa Calm     85 % 0.00 in /  0 mm
05:12 35.7 °F /  2.1 °C 31.9 °F /  -0.1 °C 30.27 in /  1024.9 hPa Calm     86 % 0.00 in /  0 mm
05:17 35.4 °F /  1.9 °C 31.9 °F /  -0.1 °C 30.27 in /  1024.9 hPa Calm     87 % 0.00 in /  0 mm
05:22 35.2 °F /  1.8 °C 32.0 °F /  0 °C 30.27 in /  1024.9 hPa Calm     88 % 0.00 in /  0 mm
05:27 35.4 °F /  1.9 °C 32.5 °F /  0.3 °C 30.27 in /  1024.9 hPa Calm     89 % 0.00 in /  0 mm
05:32 35.5 °F /  1.9 °C 32.6 °F /  0.3 °C 30.27 in /  1024.9 hPa Calm     89 % 0.00 in /  0 mm
05:37 35.6 °F /  2 °C 32.7 °F /  0.4 °C 30.27 in /  1024.9 hPa Calm     89 % 0.00 in /  0 mm
05:42 35.5 °F /  1.9 °C 32.9 °F /  0.5 °C 30.27 in /  1024.9 hPa Calm     90 % 0.00 in /  0 mm
05:47 35.5 °F /  1.9 °C 32.9 °F /  0.5 °C 30.27 in /  1024.9 hPa Calm     90 % 0.00 in /  0 mm
05:52 35.7 °F /  2.1 °C 33.1 °F /  0.6 °C 30.28 in /  1025.3 hPa Calm     90 % 0.00 in /  0 mm
05:57 35.9 °F /  2.2 °C 33.3 °F /  0.7 °C 30.28 in /  1025.3 hPa Calm     90 % 0.00 in /  0 mm
06:02 36.0 °F /  2.2 °C 33.4 °F /  0.8 °C 30.28 in /  1025.3 hPa Calm     90 % 0.00 in /  0 mm
06:07 36.0 °F /  2.2 °C 33.4 °F /  0.8 °C 30.28 in /  1025.3 hPa Calm     90 % 0.00 in /  0 mm
06:12 36.0 °F /  2.2 °C 33.4 °F /  0.8 °C 30.28 in /  1025.3 hPa Calm     90 % 0.00 in /  0 mm
06:17 35.9 °F /  2.2 °C 33.3 °F /  0.7 °C 30.28 in /  1025.3 hPa Calm     90 % 0.00 in /  0 mm
06:22 35.9 °F /  2.2 °C 33.3 °F /  0.7 °C 30.28 in /  1025.3 hPa Calm     90 % 0.00 in /  0 mm
06:27 35.8 °F /  2.1 °C 33.2 °F /  0.7 °C 30.28 in /  1025.3 hPa Calm     90 % 0.00 in /  0 mm
06:32 35.7 °F /  2.1 °C 33.1 °F /  0.6 °C 30.28 in /  1025.3 hPa Calm     90 % 0.00 in /  0 mm
06:37 35.9 °F /  2.2 °C 33.3 °F /  0.7 °C 30.28 in /  1025.3 hPa Calm     90 % 0.00 in /  0 mm
06:42 36.1 °F /  2.3 °C 33.5 °F /  0.8 °C 30.28 in /  1025.3 hPa Calm     90 % 0.00 in /  0 mm
06:47 36.1 °F /  2.3 °C 33.5 °F /  0.8 °C 30.29 in /  1025.6 hPa Calm     90 % 0.00 in /  0 mm
06:52 36.3 °F /  2.4 °C 33.6 °F /  0.9 °C 30.29 in /  1025.6 hPa Calm     90 % 0.00 in /  0 mm
06:57 36.2 °F /  2.3 °C 33.5 °F /  0.8 °C 30.29 in /  1025.6 hPa Calm     90 % 0.00 in /  0 mm
07:02 36.1 °F /  2.3 °C 33.5 °F /  0.8 °C 30.29 in /  1025.6 hPa Calm     90 % 0.00 in /  0 mm
07:07 36.2 °F /  2.3 °C 33.5 °F /  0.8 °C 30.29 in /  1025.6 hPa Calm     90 % 0.00 in /  0 mm
07:12 36.4 °F /  2.4 °C 33.7 °F /  0.9 °C 30.29 in /  1025.6 hPa Calm     90 % 0.00 in /  0 mm
07:17 36.6 °F /  2.6 °C 33.9 °F /  1.1 °C 30.29 in /  1025.6 hPa Calm     90 % 0.00 in /  0 mm
07:22 36.8 °F /  2.7 °C 34.1 °F /  1.2 °C 30.30 in /  1026 hPa Calm     90 % 0.00 in /  0 mm
07:28 37.1 °F /  2.8 °C 34.7 °F /  1.5 °C 30.30 in /  1026 hPa Calm     91 % 0.00 in /  0 mm
07:33 37.5 °F /  3.1 °C 35.1 °F /  1.7 °C 30.30 in /  1026 hPa Calm     91 % 0.00 in /  0 mm
07:38 38.1 °F /  3.4 °C 35.7 °F /  2.1 °C 30.30 in /  1026 hPa Calm     91 % 0.00 in /  0 mm
07:43 38.8 °F /  3.8 °C 36.4 °F /  2.4 °C 30.30 in /  1026 hPa Calm     91 % 0.00 in /  0 mm
07:48 39.9 °F /  4.4 °C 37.5 °F /  3.1 °C 30.31 in /  1026.3 hPa Calm     91 % 0.00 in /  0 mm
07:53 41.0 °F /  5 °C 37.7 °F /  3.2 °C 30.31 in /  1026.3 hPa Calm     88 % 0.00 in /  0 mm
07:58 42.1 °F /  5.6 °C 38.2 °F /  3.4 °C 30.31 in /  1026.3 hPa Calm     86 % 0.00 in /  0 mm
08:03 43.3 °F /  6.3 °C 38.8 °F /  3.8 °C 30.31 in /  1026.3 hPa Calm     84 % 0.00 in /  0 mm
08:08 44.3 °F /  6.8 °C 39.2 °F /  4 °C 30.32 in /  1026.6 hPa Calm     82 % 0.00 in /  0 mm
08:13 45.5 °F /  7.5 °C 39.0 °F /  3.9 °C 30.32 in /  1026.6 hPa Calm     78 % 0.00 in /  0 mm
08:18 46.5 °F /  8.1 °C 39.0 °F /  3.9 °C 30.32 in /  1026.6 hPa Calm     75 % 0.00 in /  0 mm
08:23 47.2 °F /  8.4 °C 39.0 °F /  3.9 °C 30.32 in /  1026.6 hPa Calm     73 % 0.00 in /  0 mm
08:28 47.8 °F /  8.8 °C 39.2 °F /  4 °C 30.32 in /  1026.6 hPa Calm     72 % 0.00 in /  0 mm
08:33 48.4 °F /  9.1 °C 39.1 °F /  3.9 °C 30.32 in /  1026.6 hPa Calm     70 % 0.00 in /  0 mm
08:38 49.1 °F /  9.5 °C 39.4 °F /  4.1 °C 30.32 in /  1026.6 hPa Calm     69 % 0.00 in /  0 mm
08:43 49.6 °F /  9.8 °C 39.5 °F /  4.2 °C 30.33 in /  1027 hPa Calm     68 % 0.00 in /  0 mm
08:48 50.4 °F /  10.2 °C 39.9 °F /  4.4 °C 30.32 in /  1026.6 hPa Calm     67 % 0.00 in /  0 mm
08:53 51.5 °F /  10.8 °C 40.1 °F /  4.5 °C 30.32 in /  1026.6 hPa ESE 1.2 mph /  1.9 km/h 1.2 mph /  1.9 km/h 65 % 0.00 in /  0 mm
08:58 52.0 °F /  11.1 °C 39.8 °F /  4.3 °C 30.32 in /  1026.6 hPa SSE 1.2 mph /  1.9 km/h   63 % 0.00 in /  0 mm
09:03 52.8 °F /  11.6 °C 40.1 °F /  4.5 °C 30.31 in /  1026.3 hPa Calm     62 % 0.00 in /  0 mm
09:08 53.2 °F /  11.8 °C 39.7 °F /  4.3 °C 30.31 in /  1026.3 hPa ESE 1.2 mph /  1.9 km/h   60 % 0.00 in /  0 mm
09:13 53.3 °F /  11.8 °C 39.8 °F /  4.3 °C 30.31 in /  1026.3 hPa Calm     60 % 0.00 in /  0 mm
09:18 53.8 °F /  12.1 °C 40.2 °F /  4.6 °C 30.31 in /  1026.3 hPa Calm     60 % 0.00 in /  0 mm
09:23 54.3 °F /  12.4 °C 39.8 °F /  4.3 °C 30.31 in /  1026.3 hPa Calm     58 % 0.00 in /  0 mm
09:28 54.4 °F /  12.4 °C 39.9 °F /  4.4 °C 30.31 in /  1026.3 hPa Calm     58 % 0.00 in /  0 mm
09:33 54.7 °F /  12.6 °C 39.8 °F /  4.3 °C 30.30 in /  1026 hPa ENE 2.3 mph /  3.7 km/h 2.3 mph /  3.7 km/h 57 % 0.00 in /  0 mm
09:38 54.9 °F /  12.7 °C 39.9 °F /  4.4 °C 30.30 in /  1026 hPa SSE 2.3 mph /  3.7 km/h   57 % 0.00 in /  0 mm
09:43 55.6 °F /  13.1 °C 39.7 °F /  4.3 °C 30.30 in /  1026 hPa Calm     55 % 0.00 in /  0 mm
09:48 56.4 °F /  13.6 °C 40.4 °F /  4.7 °C 30.30 in /  1026 hPa SSE 1.2 mph /  1.9 km/h 1.2 mph /  1.9 km/h 55 % 0.00 in /  0 mm
09:53 56.4 °F /  13.6 °C 40.0 °F /  4.4 °C 30.29 in /  1025.6 hPa SW 1.2 mph /  1.9 km/h   54 % 0.00 in /  0 mm
09:58 56.7 °F /  13.7 °C 40.7 °F /  4.8 °C 30.29 in /  1025.6 hPa ESE 1.2 mph /  1.9 km/h   55 % 0.00 in /  0 mm
10:03 56.9 °F /  13.8 °C 39.9 °F /  4.4 °C 30.29 in /  1025.6 hPa Calm     53 % 0.00 in /  0 mm
10:08 56.8 °F /  13.8 °C 39.8 °F /  4.3 °C 30.29 in /  1025.6 hPa NW 1.2 mph /  1.9 km/h 1.2 mph /  1.9 km/h 53 % 0.00 in /  0 mm
10:13 57.1 °F /  13.9 °C 40.1 °F /  4.5 °C 30.28 in /  1025.3 hPa ESE 1.2 mph /  1.9 km/h   53 % 0.00 in /  0 mm
10:18 57.2 °F /  14 °C 39.7 °F /  4.3 °C 30.28 in /  1025.3 hPa NNW 2.3 mph /  3.7 km/h 2.3 mph /  3.7 km/h 52 % 0.00 in /  0 mm
10:23 57.4 °F /  14.1 °C 40.4 °F /  4.7 °C 30.28 in /  1025.3 hPa WNW 1.2 mph /  1.9 km/h 1.2 mph /  1.9 km/h 53 % 0.00 in /  0 mm
10:28 57.9 °F /  14.4 °C 40.4 °F /  4.7 °C 30.27 in /  1024.9 hPa Calm     52 % 0.00 in /  0 mm
10:33 58.6 °F /  14.8 °C 40.5 °F /  4.7 °C 30.27 in /  1024.9 hPa West 3.0 mph /  4.8 km/h 3.0 mph /  4.8 km/h 51 % 0.00 in /  0 mm
10:38 58.2 °F /  14.6 °C 40.6 °F /  4.8 °C 30.27 in /  1024.9 hPa NW 1.2 mph /  1.9 km/h 1.2 mph /  1.9 km/h 52 % 0.00 in /  0 mm
10:43 58.1 °F /  14.5 °C 40.6 °F /  4.8 °C 30.27 in /  1024.9 hPa NW 1.2 mph /  1.9 km/h 1.2 mph /  1.9 km/h 52 % 0.00 in /  0 mm
10:48 58.3 °F /  14.6 °C 40.7 °F /  4.8 °C 30.27 in /  1024.9 hPa WNW 1.2 mph /  1.9 km/h 1.2 mph /  1.9 km/h 52 % 0.00 in /  0 mm
10:53 58.8 °F /  14.9 °C 41.7 °F /  5.4 °C 30.27 in /  1024.9 hPa SSE 1.0 mph /  1.6 km/h 1.0 mph /  1.6 km/h 53 % 0.00 in /  0 mm
10:58 59.5 °F /  15.3 °C 42.8 °F /  6 °C 30.26 in /  1024.6 hPa SSE 1.2 mph /  1.9 km/h   54 % 0.00 in /  0 mm
11:03 60.1 °F /  15.6 °C 41.4 °F /  5.2 °C 30.26 in /  1024.6 hPa NW 1.2 mph /  1.9 km/h   50 % 0.00 in /  0 mm
11:08 60.0 °F /  15.6 °C 40.8 °F /  4.9 °C 30.26 in /  1024.6 hPa NW 2.3 mph /  3.7 km/h 2.3 mph /  3.7 km/h 49 % 0.00 in /  0 mm
11:13 60.1 °F /  15.6 °C 41.9 °F /  5.5 °C 30.25 in /  1024.3 hPa Calm     51 % 0.00 in /  0 mm
11:18 60.6 °F /  15.9 °C 42.4 °F /  5.8 °C 30.25 in /  1024.3 hPa SSW 3.5 mph /  5.6 km/h   51 % 0.00 in /  0 mm
11:23 61.0 °F /  16.1 °C 43.2 °F /  6.2 °C 30.25 in /  1024.3 hPa WNW 1.0 mph /  1.6 km/h 1.0 mph /  1.6 km/h 52 % 0.00 in /  0 mm
11:28 61.3 °F /  16.3 °C 41.4 °F /  5.2 °C 30.25 in /  1024.3 hPa West 3.5 mph /  5.6 km/h 3.5 mph /  5.6 km/h 48 % 0.00 in /  0 mm
11:33 61.5 °F /  16.4 °C 43.7 °F /  6.5 °C 30.25 in /  1024.3 hPa South 1.2 mph /  1.9 km/h   52 % 0.00 in /  0 mm
11:38 62.3 °F /  16.8 °C 42.3 °F /  5.7 °C 30.25 in /  1024.3 hPa NW 2.3 mph /  3.7 km/h 2.3 mph /  3.7 km/h 48 % 0.00 in /  0 mm
11:43 61.9 °F /  16.6 °C 41.4 °F /  5.2 °C 30.25 in /  1024.3 hPa NW 3.5 mph /  5.6 km/h 3.5 mph /  5.6 km/h 47 % 0.00 in /  0 mm
11:48 61.9 °F /  16.6 °C 41.4 °F /  5.2 °C 30.24 in /  1023.9 hPa WNW 1.2 mph /  1.9 km/h   47 % 0.00 in /  0 mm
11:54 61.8 °F /  16.6 °C 41.9 °F /  5.5 °C 30.24 in /  1023.9 hPa NW 1.2 mph /  1.9 km/h 1.2 mph /  1.9 km/h 48 % 0.00 in /  0 mm
11:59 62.0 °F /  16.7 °C 41.5 °F /  5.3 °C 30.24 in /  1023.9 hPa NW 1.2 mph /  1.9 km/h 1.2 mph /  1.9 km/h 47 % 0.00 in /  0 mm
12:04 62.3 °F /  16.8 °C 41.8 °F /  5.4 °C 30.24 in /  1023.9 hPa NW 1.2 mph /  1.9 km/h 1.2 mph /  1.9 km/h 47 % 0.00 in /  0 mm
12:09 62.7 °F /  17.1 °C 39.9 °F /  4.4 °C 30.23 in /  1023.6 hPa SW 2.3 mph /  3.7 km/h 2.3 mph /  3.7 km/h 43 % 0.00 in /  0 mm
12:14 63.0 °F /  17.2 °C 40.7 °F /  4.8 °C 30.23 in /  1023.6 hPa NNW 1.2 mph /  1.9 km/h 1.2 mph /  1.9 km/h 44 % 0.00 in /  0 mm
12:19 63.3 °F /  17.4 °C 40.4 °F /  4.7 °C 30.22 in /  1023.2 hPa NNE 1.2 mph /  1.9 km/h 1.2 mph /  1.9 km/h 43 % 0.00 in /  0 mm
12:24 63.7 °F /  17.6 °C 41.4 °F /  5.2 °C 30.22 in /  1023.2 hPa NW 1.2 mph /  1.9 km/h 1.2 mph /  1.9 km/h 44 % 0.00 in /  0 mm
12:29 63.4 °F /  17.4 °C 39.9 °F /  4.4 °C 30.22 in /  1023.2 hPa WNW 2.3 mph /  3.7 km/h 2.3 mph /  3.7 km/h 42 % 0.00 in /  0 mm
12:34 63.3 °F /  17.4 °C 39.8 °F /  4.3 °C 30.21 in /  1022.9 hPa NNW 2.3 mph /  3.7 km/h 2.3 mph /  3.7 km/h 42 % 0.00 in /  0 mm
12:39 63.6 °F /  17.6 °C 40.1 °F /  4.5 °C 30.20 in /  1022.6 hPa West 1.2 mph /  1.9 km/h 1.2 mph /  1.9 km/h 42 % 0.00 in /  0 mm
12:44 63.9 °F /  17.7 °C 39.7 °F /  4.3 °C 30.20 in /  1022.6 hPa NNE 1.2 mph /  1.9 km/h 1.2 mph /  1.9 km/h 41 % 0.00 in /  0 mm
12:49 64.4 °F /  18 °C 41.4 °F /  5.2 °C 30.20 in /  1022.6 hPa SSW 1.0 mph /  1.6 km/h   43 % 0.00 in /  0 mm
12:54 64.6 °F /  18.1 °C 41.0 °F /  5 °C 30.20 in /  1022.6 hPa NW 3.5 mph /  5.6 km/h 3.5 mph /  5.6 km/h 42 % 0.00 in /  0 mm
12:59 64.7 °F /  18.2 °C 41.7 °F /  5.4 °C 30.19 in /  1022.2 hPa SSW 1.2 mph /  1.9 km/h 1.2 mph /  1.9 km/h 43 % 0.00 in /  0 mm
13:04 64.5 °F /  18.1 °C 40.3 °F /  4.6 °C 30.19 in /  1022.2 hPa Calm     41 % 0.00 in /  0 mm
13:09 64.9 °F /  18.3 °C 40.0 °F /  4.4 °C 30.18 in /  1021.9 hPa WNW 2.3 mph /  3.7 km/h 2.3 mph /  3.7 km/h 40 % 0.00 in /  0 mm
13:14 64.7 °F /  18.2 °C 41.1 °F /  5.1 °C 30.18 in /  1021.9 hPa NW 2.3 mph /  3.7 km/h 2.3 mph /  3.7 km/h 42 % 0.00 in /  0 mm
13:19 64.7 °F /  18.2 °C 40.4 °F /  4.7 °C 30.18 in /  1021.9 hPa NW 3.5 mph /  5.6 km/h 3.5 mph /  5.6 km/h 41 % 0.00 in /  0 mm
13:24 64.5 °F /  18.1 °C 39.6 °F /  4.2 °C 30.17 in /  1021.6 hPa WSW 1.2 mph /  1.9 km/h 1.2 mph /  1.9 km/h 40 % 0.00 in /  0 mm
13:29 64.9 °F /  18.3 °C 40.6 °F /  4.8 °C 30.17 in /  1021.6 hPa Calm     41 % 0.00 in /  0 mm
13:34 65.3 °F /  18.5 °C 39.7 °F /  4.3 °C 30.17 in /  1021.6 hPa North 1.2 mph /  1.9 km/h 1.2 mph /  1.9 km/h 39 % 0.00 in /  0 mm
13:39 65.8 °F /  18.8 °C 40.8 °F /  4.9 °C 30.17 in /  1021.6 hPa NW 1.2 mph /  1.9 km/h 1.2 mph /  1.9 km/h 40 % 0.00 in /  0 mm
13:44 65.8 °F /  18.8 °C 40.1 °F /  4.5 °C 30.16 in /  1021.2 hPa North 1.2 mph /  1.9 km/h 1.2 mph /  1.9 km/h 39 % 0.00 in /  0 mm
13:49 66.2 °F /  19 °C 39.8 °F /  4.3 °C 30.16 in /  1021.2 hPa NW 1.2 mph /  1.9 km/h 1.2 mph /  1.9 km/h 38 % 0.00 in /  0 mm
13:54 66.2 °F /  19 °C 40.5 °F /  4.7 °C 30.16 in /  1021.2 hPa NW 2.3 mph /  3.7 km/h 2.3 mph /  3.7 km/h 39 % 0.00 in /  0 mm
13:59 66.0 °F /  18.9 °C 40.3 °F /  4.6 °C 30.16 in /  1021.2 hPa SW 1.2 mph /  1.9 km/h 1.2 mph /  1.9 km/h 39 % 0.00 in /  0 mm
14:04 66.3 °F /  19.1 °C 40.6 °F /  4.8 °C 30.16 in /  1021.2 hPa SSE 2.0 mph /  3.2 km/h 2.0 mph /  3.2 km/h 39 % 0.00 in /  0 mm
14:09 66.8 °F /  19.3 °C 39.7 °F /  4.3 °C 30.16 in /  1021.2 hPa NW 2.3 mph /  3.7 km/h 2.3 mph /  3.7 km/h 37 % 0.00 in /  0 mm
14:14 66.4 °F /  19.1 °C 38.6 °F /  3.7 °C 30.16 in /  1021.2 hPa North 2.3 mph /  3.7 km/h 2.3 mph /  3.7 km/h 36 % 0.00 in /  0 mm
14:19 66.1 °F /  18.9 °C 39.7 °F /  4.3 °C 30.15 in /  1020.9 hPa North 1.2 mph /  1.9 km/h 1.2 mph /  1.9 km/h 38 % 0.00 in /  0 mm
14:24 66.4 °F /  19.1 °C 38.6 °F /  3.7 °C 30.15 in /  1020.9 hPa Calm     36 % 0.00 in /  0 mm
14:29 66.4 °F /  19.1 °C 39.3 °F /  4.1 °C 30.15 in /  1020.9 hPa NW 3.5 mph /  5.6 km/h 3.5 mph /  5.6 km/h 37 % 0.00 in /  0 mm
14:34 66.2 °F /  19 °C 38.4 °F /  3.6 °C 30.15 in /  1020.9 hPa NW 3.5 mph /  5.6 km/h 3.5 mph /  5.6 km/h 36 % 0.00 in /  0 mm
14:39 66.4 °F /  19.1 °C 38.6 °F /  3.7 °C 30.15 in /  1020.9 hPa West 3.5 mph /  5.6 km/h 3.5 mph /  5.6 km/h 36 % 0.00 in /  0 mm
14:44 66.3 °F /  19.1 °C 38.5 °F /  3.6 °C 30.15 in /  1020.9 hPa NNE 2.3 mph /  3.7 km/h 2.3 mph /  3.7 km/h 36 % 0.00 in /  0 mm
14:49 66.0 °F /  18.9 °C 38.3 °F /  3.5 °C 30.15 in /  1020.9 hPa NW 1.2 mph /  1.9 km/h 1.2 mph /  1.9 km/h 36 % 0.00 in /  0 mm
14:54 66.2 °F /  19 °C 38.4 °F /  3.6 °C 30.15 in /  1020.9 hPa South 1.2 mph /  1.9 km/h 1.2 mph /  1.9 km/h 36 % 0.00 in /  0 mm
14:59 66.4 °F /  19.1 °C 38.6 °F /  3.7 °C 30.15 in /  1020.9 hPa NW 2.3 mph /  3.7 km/h 2.3 mph /  3.7 km/h 36 % 0.00 in /  0 mm
15:04 66.4 °F /  19.1 °C 37.9 °F /  3.3 °C 30.15 in /  1020.9 hPa NW 2.0 mph /  3.2 km/h 2.0 mph /  3.2 km/h 35 % 0.00 in /  0 mm
15:09 66.3 °F /  19.1 °C 37.8 °F /  3.2 °C 30.15 in /  1020.9 hPa NW 1.2 mph /  1.9 km/h 1.2 mph /  1.9 km/h 35 % 0.00 in /  0 mm
15:14 66.2 °F /  19 °C 37.7 °F /  3.2 °C 30.15 in /  1020.9 hPa NW 3.5 mph /  5.6 km/h 3.5 mph /  5.6 km/h 35 % 0.00 in /  0 mm
15:21 66.0 °F /  18.9 °C 38.3 °F /  3.5 °C 30.15 in /  1020.9 hPa NW 2.0 mph /  3.2 km/h 2.0 mph /  3.2 km/h 36 % 0.00 in /  0 mm
15:26 66.1 °F /  18.9 °C 35.4 °F /  1.9 °C 30.15 in /  1020.9 hPa NW 3.0 mph /  4.8 km/h 3.0 mph /  4.8 km/h 32 % 0.00 in /  0 mm
15:31 65.9 °F /  18.8 °C 36.7 °F /  2.6 °C 30.15 in /  1020.9 hPa NW 3.0 mph /  4.8 km/h 3.0 mph /  4.8 km/h 34 % 0.00 in /  0 mm
15:36 65.8 °F /  18.8 °C 36.6 °F /  2.6 °C 30.15 in /  1020.9 hPa NW 5.0 mph /  8 km/h 5.0 mph /  8 km/h 34 % 0.00 in /  0 mm
15:41 65.5 °F /  18.6 °C 35.6 °F /  2 °C 30.16 in /  1021.2 hPa WNW 3.5 mph /  5.6 km/h 3.5 mph /  5.6 km/h 33 % 0.00 in /  0 mm
15:46 65.3 °F /  18.5 °C 36.9 °F /  2.7 °C 30.16 in /  1021.2 hPa NNW 5.8 mph /  9.3 km/h 5.8 mph /  9.3 km/h 35 % 0.00 in /  0 mm
15:51 65.2 °F /  18.4 °C 36.1 °F /  2.3 °C 30.16 in /  1021.2 hPa WNW 4.6 mph /  7.4 km/h 4.6 mph /  7.4 km/h 34 % 0.00 in /  0 mm
15:56 65.3 °F /  18.5 °C 36.2 °F /  2.3 °C 30.16 in /  1021.2 hPa WNW 3.5 mph /  5.6 km/h 3.5 mph /  5.6 km/h 34 % 0.00 in /  0 mm
16:01 65.2 °F /  18.4 °C 36.1 °F /  2.3 °C 30.16 in /  1021.2 hPa WNW 2.3 mph /  3.7 km/h 2.3 mph /  3.7 km/h 34 % 0.00 in /  0 mm
16:06 65.2 °F /  18.4 °C 35.4 °F /  1.9 °C 30.16 in /  1021.2 hPa NW 3.5 mph /  5.6 km/h 3.5 mph /  5.6 km/h 33 % 0.00 in /  0 mm
16:07 65.2 °F /  18.4 °C 36.1 °F /  2.3 °C 30.16 in /  1021.2 hPa WNW 5.0 mph /  8 km/h 5.0 mph /  8 km/h 34 % 0.00 in /  0 mm
16:12 65.1 °F /  18.4 °C 35.3 °F /  1.8 °C 30.16 in /  1021.2 hPa WNW 3.5 mph /  5.6 km/h 3.5 mph /  5.6 km/h 33 % 0.00 in /  0 mm
16:17 65.0 °F /  18.3 °C 34.4 °F /  1.3 °C 30.16 in /  1021.2 hPa NW 2.0 mph /  3.2 km/h 2.0 mph /  3.2 km/h 32 % 0.00 in /  0 mm
16:22 64.9 °F /  18.3 °C 35.1 °F /  1.7 °C 30.16 in /  1021.2 hPa NW 2.3 mph /  3.7 km/h 2.3 mph /  3.7 km/h 33 % 0.00 in /  0 mm
16:29 64.6 °F /  18.1 °C 34.8 °F /  1.6 °C 30.16 in /  1021.2 hPa NW 2.3 mph /  3.7 km/h 2.3 mph /  3.7 km/h 33 % 0.00 in /  0 mm
16:34 64.5 °F /  18.1 °C 34.7 °F /  1.5 °C 30.15 in /  1020.9 hPa WNW 2.3 mph /  3.7 km/h 2.3 mph /  3.7 km/h 33 % 0.00 in /  0 mm
16:39 64.3 °F /  17.9 °C 34.6 °F /  1.4 °C 30.15 in /  1020.9 hPa Calm     33 % 0.00 in /  0 mm
16:44 64.1 °F /  17.8 °C 35.1 °F /  1.7 °C 30.15 in /  1020.9 hPa Calm     34 % 0.00 in /  0 mm
16:49 64.0 °F /  17.8 °C 35.0 °F /  1.7 °C 30.15 in /  1020.9 hPa West 1.2 mph /  1.9 km/h   34 % 0.00 in /  0 mm
16:54 63.8 °F /  17.7 °C 34.9 °F /  1.6 °C 30.15 in /  1020.9 hPa SW 1.2 mph /  1.9 km/h 1.2 mph /  1.9 km/h 34 % 0.00 in /  0 mm
16:59 63.6 °F /  17.6 °C 35.4 °F /  1.9 °C 30.15 in /  1020.9 hPa Calm   0.1 mph /  0.2 km/h 35 % 0.00 in /  0 mm
17:04 63.5 °F /  17.5 °C 35.3 °F /  1.8 °C 30.15 in /  1020.9 hPa Calm     35 % 0.00 in /  0 mm
17:09 63.3 °F /  17.4 °C 35.9 °F /  2.2 °C 30.15 in /  1020.9 hPa Calm     36 % 0.00 in /  0 mm
17:14 62.8 °F /  17.1 °C 36.1 °F /  2.3 °C 30.14 in /  1020.5 hPa Calm     37 % 0.00 in /  0 mm
17:19 62.2 °F /  16.8 °C 35.6 °F /  2 °C 30.15 in /  1020.9 hPa Calm     37 % 0.00 in /  0 mm
17:24 61.6 °F /  16.4 °C 36.4 °F /  2.4 °C 30.14 in /  1020.5 hPa Calm     39 % 0.00 in /  0 mm
17:29 60.9 °F /  16.1 °C 36.4 °F /  2.4 °C 30.15 in /  1020.9 hPa Calm     40 % 0.00 in /  0 mm
17:34 60.1 °F /  15.6 °C 38.1 °F /  3.4 °C 30.15 in /  1020.9 hPa Calm     44 % 0.00 in /  0 mm
17:42 59.1 °F /  15.1 °C 37.2 °F /  2.9 °C 30.15 in /  1020.9 hPa Calm     44 % 0.00 in /  0 mm
17:47 58.5 °F /  14.7 °C 37.8 °F /  3.2 °C 30.15 in /  1020.9 hPa Calm     46 % 0.00 in /  0 mm
17:52 57.9 °F /  14.4 °C 38.3 °F /  3.5 °C 30.15 in /  1020.9 hPa Calm     48 % 0.00 in /  0 mm
17:59 56.8 °F /  13.8 °C 39.4 °F /  4.1 °C 30.15 in /  1020.9 hPa Calm     52 % 0.00 in /  0 mm
18:04 56.2 °F /  13.4 °C 39.8 °F /  4.3 °C 30.15 in /  1020.9 hPa Calm     54 % 0.00 in /  0 mm
18:09 55.5 °F /  13.1 °C 39.1 °F /  3.9 °C 30.15 in /  1020.9 hPa Calm     54 % 0.00 in /  0 mm
18:14 55.2 °F /  12.9 °C 38.4 °F /  3.6 °C 30.15 in /  1020.9 hPa Calm     53 % 0.00 in /  0 mm
18:19 54.9 °F /  12.7 °C 38.6 °F /  3.7 °C 30.15 in /  1020.9 hPa Calm     54 % 0.00 in /  0 mm
18:24 54.3 °F /  12.4 °C 38.0 °F /  3.3 °C 30.15 in /  1020.9 hPa Calm     54 % 0.00 in /  0 mm
18:29 53.9 °F /  12.2 °C 38.6 °F /  3.7 °C 30.15 in /  1020.9 hPa Calm     56 % 0.00 in /  0 mm
18:34 53.4 °F /  11.9 °C 38.5 °F /  3.6 °C 30.15 in /  1020.9 hPa Calm     57 % 0.00 in /  0 mm
18:39 53.1 °F /  11.7 °C 39.1 °F /  3.9 °C 30.15 in /  1020.9 hPa Calm     59 % 0.00 in /  0 mm
18:44 53.3 °F /  11.8 °C 39.8 °F /  4.3 °C 30.15 in /  1020.9 hPa Calm     60 % 0.00 in /  0 mm
18:50 53.1 °F /  11.7 °C 39.6 °F /  4.2 °C 30.15 in /  1020.9 hPa Calm     60 % 0.00 in /  0 mm
18:55 52.8 °F /  11.6 °C 38.9 °F /  3.8 °C 30.15 in /  1020.9 hPa Calm     59 % 0.00 in /  0 mm
19:00 52.8 °F /  11.6 °C 38.4 °F /  3.6 °C 30.15 in /  1020.9 hPa Calm     58 % 0.00 in /  0 mm
19:05 52.8 °F /  11.6 °C 38.4 °F /  3.6 °C 30.16 in /  1021.2 hPa Calm     58 % 0.00 in /  0 mm
19:10 52.6 °F /  11.4 °C 37.8 °F /  3.2 °C 30.16 in /  1021.2 hPa Calm     57 % 0.00 in /  0 mm
19:15 52.2 °F /  11.2 °C 38.7 °F /  3.7 °C 30.16 in /  1021.2 hPa Calm     60 % 0.00 in /  0 mm
19:20 51.8 °F /  11 °C 38.3 °F /  3.5 °C 30.16 in /  1021.2 hPa Calm     60 % 0.00 in /  0 mm
19:25 51.7 °F /  10.9 °C 38.3 °F /  3.5 °C 30.17 in /  1021.6 hPa Calm     60 % 0.00 in /  0 mm
19:30 51.5 °F /  10.8 °C 38.1 °F /  3.4 °C 30.17 in /  1021.6 hPa Calm     60 % 0.00 in /  0 mm
19:35 51.8 °F /  11 °C 37.9 °F /  3.3 °C 30.17 in /  1021.6 hPa Calm     59 % 0.00 in /  0 mm
19:40 52.4 °F /  11.3 °C 37.6 °F /  3.1 °C 30.17 in /  1021.6 hPa Calm     57 % 0.00 in /  0 mm
19:45 52.4 °F /  11.3 °C 38.5 °F /  3.6 °C 30.17 in /  1021.6 hPa Calm     59 % 0.00 in /  0 mm
19:50 51.9 °F /  11.1 °C 38.4 °F /  3.6 °C 30.17 in /  1021.6 hPa Calm     60 % 0.00 in /  0 mm
19:55 51.6 °F /  10.9 °C 38.2 °F /  3.4 °C 30.17 in /  1021.6 hPa Calm     60 % 0.00 in /  0 mm
20:00 51.0 °F /  10.6 °C 37.6 °F /  3.1 °C 30.17 in /  1021.6 hPa Calm     60 % 0.00 in /  0 mm
20:05 50.7 °F /  10.4 °C 37.7 °F /  3.2 °C 30.17 in /  1021.6 hPa Calm     61 % 0.00 in /  0 mm
20:10 50.6 °F /  10.3 °C 36.4 °F /  2.4 °C 30.17 in /  1021.6 hPa Calm     58 % 0.00 in /  0 mm
20:15 51.0 °F /  10.6 °C 37.2 °F /  2.9 °C 30.17 in /  1021.6 hPa Calm     59 % 0.00 in /  0 mm
20:20 50.7 °F /  10.4 °C 36.9 °F /  2.7 °C 30.18 in /  1021.9 hPa Calm     59 % 0.00 in /  0 mm
20:25 50.1 °F /  10.1 °C 36.7 °F /  2.6 °C 30.18 in /  1021.9 hPa Calm     60 % 0.00 in /  0 mm
20:30 49.6 °F /  9.8 °C 37.1 °F /  2.8 °C 30.18 in /  1021.9 hPa Calm     62 % 0.00 in /  0 mm
20:35 49.3 °F /  9.6 °C 37.2 °F /  2.9 °C 30.18 in /  1021.9 hPa Calm     63 % 0.00 in /  0 mm
20:40 49.1 °F /  9.5 °C 37.4 °F /  3 °C 30.19 in /  1022.2 hPa Calm     64 % 0.00 in /  0 mm
20:45 48.9 °F /  9.4 °C 37.3 °F /  2.9 °C 30.19 in /  1022.2 hPa Calm     64 % 0.00 in /  0 mm
20:50 48.8 °F /  9.3 °C 37.2 °F /  2.9 °C 30.19 in /  1022.2 hPa Calm     64 % 0.00 in /  0 mm
20:55 48.7 °F /  9.3 °C 37.5 °F /  3.1 °C 30.19 in /  1022.2 hPa Calm     65 % 0.00 in /  0 mm
21:00 48.4 °F /  9.1 °C 38.3 °F /  3.5 °C 30.19 in /  1022.2 hPa Calm     68 % 0.00 in /  0 mm
21:05 48.0 °F /  8.9 °C 37.6 °F /  3.1 °C 30.19 in /  1022.2 hPa Calm     67 % 0.00 in /  0 mm
21:10 47.7 °F /  8.7 °C 38.0 °F /  3.3 °C 30.19 in /  1022.2 hPa Calm     69 % 0.00 in /  0 mm
21:15 47.2 °F /  8.4 °C 38.3 °F /  3.5 °C 30.19 in /  1022.2 hPa WNW 1.2 mph /  1.9 km/h 1.2 mph /  1.9 km/h 71 % 0.00 in /  0 mm
21:20 46.0 °F /  7.8 °C 37.5 °F /  3.1 °C 30.19 in /  1022.2 hPa Calm     72 % 0.00 in /  0 mm
21:25 45.7 °F /  7.6 °C 37.5 °F /  3.1 °C 30.19 in /  1022.2 hPa Calm     73 % 0.00 in /  0 mm
21:30 45.9 °F /  7.7 °C 37.7 °F /  3.2 °C 30.19 in /  1022.2 hPa Calm     73 % 0.00 in /  0 mm
21:35 45.9 °F /  7.7 °C 37.7 °F /  3.2 °C 30.19 in /  1022.2 hPa Calm     73 % 0.00 in /  0 mm
21:40 45.9 °F /  7.7 °C 37.7 °F /  3.2 °C 30.19 in /  1022.2 hPa Calm     73 % 0.00 in /  0 mm
21:45 45.7 °F /  7.6 °C 37.5 °F /  3.1 °C 30.19 in /  1022.2 hPa Calm     73 % 0.00 in /  0 mm
21:50 45.7 °F /  7.6 °C 37.5 °F /  3.1 °C 30.20 in /  1022.6 hPa Calm     73 % 0.00 in /  0 mm
21:55 46.2 °F /  7.9 °C 37.7 °F /  3.2 °C 30.20 in /  1022.6 hPa WNW 1.2 mph /  1.9 km/h   72 % 0.00 in /  0 mm
22:00 46.5 °F /  8.1 °C 37.6 °F /  3.1 °C 30.20 in /  1022.6 hPa Calm     71 % 0.00 in /  0 mm
22:05 46.4 °F /  8 °C 37.5 °F /  3.1 °C 30.19 in /  1022.2 hPa Calm     71 % 0.00 in /  0 mm
22:10 46.1 °F /  7.8 °C 37.2 °F /  2.9 °C 30.19 in /  1022.2 hPa Calm     71 % 0.00 in /  0 mm
22:15 45.7 °F /  7.6 °C 37.2 °F /  2.9 °C 30.19 in /  1022.2 hPa Calm     72 % 0.00 in /  0 mm
22:20 44.7 °F /  7.1 °C 36.6 °F /  2.6 °C 30.20 in /  1022.6 hPa Calm     73 % 0.00 in /  0 mm
22:25 44.1 °F /  6.7 °C 36.7 °F /  2.6 °C 30.20 in /  1022.6 hPa Calm     75 % 0.00 in /  0 mm
22:30 43.7 °F /  6.5 °C 36.3 °F /  2.4 °C 30.20 in /  1022.6 hPa Calm     75 % 0.00 in /  0 mm
22:35 43.3 °F /  6.3 °C 36.6 °F /  2.6 °C 30.20 in /  1022.6 hPa Calm     77 % 0.00 in /  0 mm
22:40 42.8 °F /  6 °C 36.1 °F /  2.3 °C 30.20 in /  1022.6 hPa Calm     77 % 0.00 in /  0 mm
22:45 42.4 °F /  5.8 °C 36.3 °F /  2.4 °C 30.21 in /  1022.9 hPa Calm     79 % 0.00 in /  0 mm
22:50 42.5 °F /  5.8 °C 36.4 °F /  2.4 °C 30.21 in /  1022.9 hPa Calm     79 % 0.00 in /  0 mm
22:55 42.5 °F /  5.8 °C 36.4 °F /  2.4 °C 30.21 in /  1022.9 hPa Calm     79 % 0.00 in /  0 mm
23:00 42.5 °F /  5.8 °C 36.8 °F /  2.7 °C 30.21 in /  1022.9 hPa Calm     80 % 0.00 in /  0 mm
23:05 42.4 °F /  5.8 °C 36.7 °F /  2.6 °C 30.21 in /  1022.9 hPa Calm     80 % 0.00 in /  0 mm
23:10 42.1 °F /  5.6 °C 36.1 °F /  2.3 °C 30.20 in /  1022.6 hPa Calm     79 % 0.00 in /  0 mm
23:15 41.9 °F /  5.5 °C 36.2 °F /  2.3 °C 30.20 in /  1022.6 hPa Calm     80 % 0.00 in /  0 mm
23:20 41.8 °F /  5.4 °C 36.1 °F /  2.3 °C 30.20 in /  1022.6 hPa Calm     80 % 0.00 in /  0 mm
23:25 41.7 °F /  5.4 °C 36.3 °F /  2.4 °C 30.20 in /  1022.6 hPa Calm     81 % 0.00 in /  0 mm
23:30 41.7 °F /  5.4 °C 36.3 °F /  2.4 °C 30.20 in /  1022.6 hPa Calm     81 % 0.00 in /  0 mm
23:35 41.7 °F /  5.4 °C 36.3 °F /  2.4 °C 30.21 in /  1022.9 hPa Calm     81 % 0.00 in /  0 mm
23:40 41.7 °F /  5.4 °C 36.3 °F /  2.4 °C 30.20 in /  1022.6 hPa Calm     81 % 0.00 in /  0 mm
23:45 41.6 °F /  5.3 °C 35.9 °F /  2.2 °C 30.20 in /  1022.6 hPa Calm     80 % 0.00 in /  0 mm
23:50 41.3 °F /  5.2 °C 35.9 °F /  2.2 °C 30.20 in /  1022.6 hPa Calm     81 % 0.00 in /  0 mm
23:55 41.6 °F /  5.3 °C 36.2 °F /  2.3 °C 30.20 in /  1022.6 hPa Calm     81 % 0.00 in /  0 mm
Park Place, Exeter, Tulare County, California, USA
Compliments of Weather Underground - 2.75 mb